sensor_id;sensor_type;location;lat;lon;timestamp;pressure;altitude;pressure_sealevel;temperature;humidity
8697;BME280;4385;48.848;8.924;2023-02-16T00:00:44;98381.03;;;15.64;100.00
8697;BME280;4385;48.848;8.924;2023-02-16T00:03:14;98377.63;;;15.62;100.00
8697;BME280;4385;48.848;8.924;2023-02-16T00:05:41;98381.84;;;15.59;100.00
8697;BME280;4385;48.848;8.924;2023-02-16T00:08:06;98375.94;;;15.59;100.00
8697;BME280;4385;48.848;8.924;2023-02-16T00:10:34;98380.16;;;15.58;100.00
8697;BME280;4385;48.848;8.924;2023-02-16T00:13:00;98379.28;;;15.56;100.00
8697;BME280;4385;48.848;8.924;2023-02-16T00:15:44;98382.66;;;15.52;100.00
8697;BME280;4385;48.848;8.924;2023-02-16T00:18:20;98380.13;;;15.52;100.00
8697;BME280;4385;48.848;8.924;2023-02-16T00:20:46;98382.66;;;15.52;100.00
8697;BME280;4385;48.848;8.924;2023-02-16T00:23:12;98384.34;;;15.55;100.00
8697;BME280;4385;48.848;8.924;2023-02-16T00:25:38;98384.38;;;15.58;100.00
8697;BME280;4385;48.848;8.924;2023-02-16T00:28:05;98380.16;;;15.62;100.00
8697;BME280;4385;48.848;8.924;2023-02-16T00:30:31;98381.03;;;15.67;100.00
8697;BME280;4385;48.848;8.924;2023-02-16T00:32:57;98378.50;;;15.68;100.00
8697;BME280;4385;48.848;8.924;2023-02-16T00:35:22;98375.97;;;15.70;100.00
8697;BME280;4385;48.848;8.924;2023-02-16T00:37:47;98381.03;;;15.70;100.00
8697;BME280;4385;48.848;8.924;2023-02-16T00:40:14;98381.06;;;15.73;100.00
8697;BME280;4385;48.848;8.924;2023-02-16T00:42:42;98382.75;;;15.74;100.00
8697;BME280;4385;48.848;8.924;2023-02-16T00:45:19;98381.06;;;15.76;100.00
8697;BME280;4385;48.848;8.924;2023-02-16T00:47:47;98380.22;;;15.76;100.00
8697;BME280;4385;48.848;8.924;2023-02-16T00:50:18;98375.13;;;15.77;100.00
8697;BME280;4385;48.848;8.924;2023-02-16T00:52:45;98374.28;;;15.78;100.00
8697;BME280;4385;48.848;8.924;2023-02-16T00:55:16;98372.59;;;15.77;100.00
8697;BME280;4385;48.848;8.924;2023-02-16T00:57:44;98374.25;;;15.75;100.00
8697;BME280;4385;48.848;8.924;2023-02-16T01:00:29;98382.75;;;15.73;100.00
8697;BME280;4385;48.848;8.924;2023-02-16T01:03:01;98375.97;;;15.70;100.00
8697;BME280;4385;48.848;8.924;2023-02-16T01:05:29;98381.03;;;15.65;100.00
8697;BME280;4385;48.848;8.924;2023-02-16T01:07:54;98375.09;;;15.62;100.00
8697;BME280;4385;48.848;8.924;2023-02-16T01:10:38;98381.00;;;15.57;100.00
8697;BME280;4385;48.848;8.924;2023-02-16T01:13:25;98377.59;;;15.55;100.00
8697;BME280;4385;48.848;8.924;2023-02-16T01:15:51;98375.06;;;15.54;100.00
8697;BME280;4385;48.848;8.924;2023-02-16T01:18:18;98373.38;;;15.53;100.00
8697;BME280;4385;48.848;8.924;2023-02-16T01:20:44;98368.28;;;15.51;100.00
8697;BME280;4385;48.848;8.924;2023-02-16T01:23:10;98366.56;;;15.50;100.00
8697;BME280;4385;48.848;8.924;2023-02-16T01:25:36;98368.28;;;15.51;100.00
8697;BME280;4385;48.848;8.924;2023-02-16T01:28:02;98369.09;;;15.53;100.00
8697;BME280;4385;48.848;8.924;2023-02-16T01:30:28;98366.59;;;15.58;100.00
8697;BME280;4385;48.848;8.924;2023-02-16T01:32:54;98359.84;;;15.62;100.00
8697;BME280;4385;48.848;8.924;2023-02-16T01:35:28;98367.47;;;15.65;100.00
8697;BME280;4385;48.848;8.924;2023-02-16T01:37:54;98364.94;;;15.68;100.00
8697;BME280;4385;48.848;8.924;2023-02-16T01:40:39;98367.50;;;15.71;100.00
8697;BME280;4385;48.848;8.924;2023-02-16T01:43:19;98365.81;;;15.73;100.00
8697;BME280;4385;48.848;8.924;2023-02-16T01:45:48;98365.81;;;15.75;100.00
8697;BME280;4385;48.848;8.924;2023-02-16T01:48:27;98363.28;;;15.73;100.00
8697;BME280;4385;48.848;8.924;2023-02-16T01:51:15;98369.19;;;15.72;100.00
8697;BME280;4385;48.848;8.924;2023-02-16T01:56:30;98365.78;;;15.67;100.00
8697;BME280;4385;48.848;8.924;2023-02-16T01:59:01;98358.97;;;15.63;100.00
8697;BME280;4385;48.848;8.924;2023-02-16T02:01:39;98366.59;;;15.59;100.00
8697;BME280;4385;48.848;8.924;2023-02-16T02:04:12;98354.75;;;15.57;100.00
8697;BME280;4385;48.848;8.924;2023-02-16T02:06:57;98358.94;;;15.55;100.00
8697;BME280;4385;48.848;8.924;2023-02-16T02:09:31;98350.50;;;15.51;100.00
8697;BME280;4385;48.848;8.924;2023-02-16T02:14:29;98358.06;;;15.42;100.00
8697;BME280;4385;48.848;8.924;2023-02-16T02:17:03;98354.69;;;15.41;100.00
8697;BME280;4385;48.848;8.924;2023-02-16T02:19:31;98353.81;;;15.41;100.00
8697;BME280;4385;48.848;8.924;2023-02-16T02:24:55;98344.53;;;15.44;100.00
8697;BME280;4385;48.848;8.924;2023-02-16T02:27:32;98347.94;;;15.48;100.00
8697;BME280;4385;48.848;8.924;2023-02-16T02:30:17;98346.25;;;15.52;100.00
8697;BME280;4385;48.848;8.924;2023-02-16T02:38:27;98336.97;;;15.58;100.00
8697;BME280;4385;48.848;8.924;2023-02-16T02:41:27;98334.44;;;15.62;100.00
8697;BME280;4385;48.848;8.924;2023-02-16T02:44:19;98332.75;;;15.62;100.00
8697;BME280;4385;48.848;8.924;2023-02-16T02:46:45;98329.34;;;15.62;100.00
8697;BME280;4385;48.848;8.924;2023-02-16T02:49:10;98336.97;;;15.62;100.00
8697;BME280;4385;48.848;8.924;2023-02-16T02:51:36;98331.88;;;15.58;100.00
8697;BME280;4385;48.848;8.924;2023-02-16T02:54:08;98334.41;;;15.57;100.00
8697;BME280;4385;48.848;8.924;2023-02-16T02:56:58;98335.28;;;15.56;100.00
8697;BME280;4385;48.848;8.924;2023-02-16T02:59:47;98329.31;;;15.52;100.00
8697;BME280;4385;48.848;8.924;2023-02-16T03:02:35;98327.63;;;15.51;100.00
8697;BME280;4385;48.848;8.924;2023-02-16T03:05:02;98323.38;;;15.47;100.00
8697;BME280;4385;48.848;8.924;2023-02-16T03:07:31;98326.75;;;15.46;100.00
8697;BME280;4385;48.848;8.924;2023-02-16T03:10:21;98327.59;;;15.43;100.00
8697;BME280;4385;48.848;8.924;2023-02-16T03:13:12;98325.06;;;15.39;100.00
8697;BME280;4385;48.848;8.924;2023-02-16T03:15:39;98325.88;;;15.38;100.00
8697;BME280;4385;48.848;8.924;2023-02-16T03:18:08;98326.72;;;15.37;100.00
8697;BME280;4385;48.848;8.924;2023-02-16T03:20:54;98329.28;;;15.38;100.00
8697;BME280;4385;48.848;8.924;2023-02-16T03:23:40;98323.34;;;15.41;100.00
8697;BME280;4385;48.848;8.924;2023-02-16T03:26:25;98331.84;;;15.44;100.00
8697;BME280;4385;48.848;8.924;2023-02-16T03:29:10;98323.38;;;15.47;100.00
8697;BME280;4385;48.848;8.924;2023-02-16T03:31:50;98324.22;;;15.51;100.00
8697;BME280;4385;48.848;8.924;2023-02-16T03:34:18;98328.47;;;15.53;100.00
8697;BME280;4385;48.848;8.924;2023-02-16T03:36:49;98331.88;;;15.55;100.00
8697;BME280;4385;48.848;8.924;2023-02-16T03:39:16;98328.47;;;15.59;100.00
8697;BME280;4385;48.848;8.924;2023-02-16T03:41:52;98338.66;;;15.59;100.00
8697;BME280;4385;48.848;8.924;2023-02-16T03:44:18;98328.50;;;15.61;100.00
8697;BME280;4385;48.848;8.924;2023-02-16T03:46:44;98335.28;;;15.61;100.00
8697;BME280;4385;48.848;8.924;2023-02-16T03:49:10;98336.09;;;15.59;100.00
8697;BME280;4385;48.848;8.924;2023-02-16T03:51:35;98336.09;;;15.58;100.00
8697;BME280;4385;48.848;8.924;2023-02-16T03:54:00;98338.66;;;15.59;100.00
8697;BME280;4385;48.848;8.924;2023-02-16T03:56:26;98334.41;;;15.58;100.00
8697;BME280;4385;48.848;8.924;2023-02-16T03:58:51;98334.41;;;15.58;100.00
8697;BME280;4385;48.848;8.924;2023-02-16T04:01:17;98340.34;;;15.57;100.00
8697;BME280;4385;48.848;8.924;2023-02-16T04:03:42;98336.94;;;15.55;100.00
8697;BME280;4385;48.848;8.924;2023-02-16T04:06:07;98334.41;;;15.52;100.00
8697;BME280;4385;48.848;8.924;2023-02-16T04:08:33;98337.78;;;15.48;100.00
8697;BME280;4385;48.848;8.924;2023-02-16T04:10:58;98338.59;;;15.44;100.00
8697;BME280;4385;48.848;8.924;2023-02-16T04:13:24;98341.97;;;15.40;100.00
8697;BME280;4385;48.848;8.924;2023-02-16T04:15:50;98338.56;;;15.38;100.00
8697;BME280;4385;48.848;8.924;2023-02-16T04:18:15;98345.34;;;15.36;100.00
8697;BME280;4385;48.848;8.924;2023-02-16T04:20:41;98346.19;;;15.36;100.00
8697;BME280;4385;48.848;8.924;2023-02-16T04:23:06;98341.09;;;15.36;100.00
8697;BME280;4385;48.848;8.924;2023-02-16T04:25:32;98347.03;;;15.37;100.00
8697;BME280;4385;48.848;8.924;2023-02-16T04:27:57;98342.81;;;15.37;100.00
8697;BME280;4385;48.848;8.924;2023-02-16T04:30:25;98342.81;;;15.37;100.00
8697;BME280;4385;48.848;8.924;2023-02-16T04:32:51;98345.38;;;15.39;100.00
8697;BME280;4385;48.848;8.924;2023-02-16T04:35:16;98344.53;;;15.41;100.00
8697;BME280;4385;48.848;8.924;2023-02-16T04:37:42;98348.75;;;15.44;100.00
8697;BME280;4385;48.848;8.924;2023-02-16T04:40:09;98349.63;;;15.46;100.00
8697;BME280;4385;48.848;8.924;2023-02-16T04:42:37;98352.16;;;15.49;100.00
8697;BME280;4385;48.848;8.924;2023-02-16T04:45:03;98350.50;;;15.51;100.00
8697;BME280;4385;48.848;8.924;2023-02-16T04:47:28;98349.63;;;15.52;100.00
8697;BME280;4385;48.848;8.924;2023-02-16T04:49:53;98348.78;;;15.53;100.00
8697;BME280;4385;48.848;8.924;2023-02-16T04:52:19;98348.78;;;15.53;100.00
8697;BME280;4385;48.848;8.924;2023-02-16T04:54:44;98346.25;;;15.52;100.00
8697;BME280;4385;48.848;8.924;2023-02-16T04:57:10;98339.47;;;15.49;100.00
8697;BME280;4385;48.848;8.924;2023-02-16T04:59:35;98333.53;;;15.45;100.00
8697;BME280;4385;48.848;8.924;2023-02-16T05:02:01;98342.84;;;15.42;100.00
8697;BME280;4385;48.848;8.924;2023-02-16T05:04:27;98336.91;;;15.40;100.00
8697;BME280;4385;48.848;8.924;2023-02-16T05:06:52;98336.88;;;15.37;100.00
8697;BME280;4385;48.848;8.924;2023-02-16T05:09:17;98337.72;;;15.34;100.00
8697;BME280;4385;48.848;8.924;2023-02-16T05:11:43;98332.63;;;15.31;100.00
8697;BME280;4385;48.848;8.924;2023-02-16T05:14:29;98346.13;;;15.27;100.00
8697;BME280;4385;48.848;8.924;2023-02-16T05:17:23;98344.44;;;15.26;100.00
8697;BME280;4385;48.848;8.924;2023-02-16T05:19:52;98341.06;;;15.27;100.00
8697;BME280;4385;48.848;8.924;2023-02-16T05:22:18;98345.31;;;15.26;100.00
8697;BME280;4385;48.848;8.924;2023-02-16T05:24:43;98347.00;;;15.27;100.00
8697;BME280;4385;48.848;8.924;2023-02-16T05:27:15;98341.91;;;15.27;100.00
8697;BME280;4385;48.848;8.924;2023-02-16T05:29:40;98343.63;;;15.31;100.00
8697;BME280;4385;48.848;8.924;2023-02-16T05:32:06;98347.03;;;15.33;100.00
8697;BME280;4385;48.848;8.924;2023-02-16T05:34:31;98347.91;;;15.36;100.00
8697;BME280;4385;48.848;8.924;2023-02-16T05:36:56;98347.91;;;15.37;100.00
8697;BME280;4385;48.848;8.924;2023-02-16T05:39:21;98351.28;;;15.39;100.00
8697;BME280;4385;48.848;8.924;2023-02-16T05:41:47;98345.38;;;15.40;100.00
8697;BME280;4385;48.848;8.924;2023-02-16T05:44:14;98351.28;;;15.41;100.00
8697;BME280;4385;48.848;8.924;2023-02-16T05:46:40;98353.81;;;15.41;100.00
8697;BME280;4385;48.848;8.924;2023-02-16T05:49:06;98360.59;;;15.39;100.00
8697;BME280;4385;48.848;8.924;2023-02-16T05:51:32;98363.13;;;15.37;100.00
8697;BME280;4385;48.848;8.924;2023-02-16T05:53:57;98374.13;;;15.34;100.00
8697;BME280;4385;48.848;8.924;2023-02-16T05:56:24;98369.00;;;15.31;100.00
8697;BME280;4385;48.848;8.924;2023-02-16T05:58:50;98369.88;;;15.29;100.00
8697;BME280;4385;48.848;8.924;2023-02-16T06:01:15;98370.72;;;15.26;100.00
8697;BME280;4385;48.848;8.924;2023-02-16T06:03:41;98368.97;;;15.24;100.00
8697;BME280;4385;48.848;8.924;2023-02-16T06:06:07;98374.06;;;15.22;100.00
8697;BME280;4385;48.848;8.924;2023-02-16T06:08:33;98371.50;;;15.19;100.00
8697;BME280;4385;48.848;8.924;2023-02-16T06:10:58;98369.81;;;15.16;100.00
8697;BME280;4385;48.848;8.924;2023-02-16T06:13:24;98374.00;;;15.13;100.00
8697;BME280;4385;48.848;8.924;2023-02-16T06:15:52;98385.84;;;15.11;100.00
8697;BME280;4385;48.848;8.924;2023-02-16T06:18:18;98388.38;;;15.09;100.00
8697;BME280;4385;48.848;8.924;2023-02-16T06:20:43;98383.31;;;15.09;100.00
8697;BME280;4385;48.848;8.924;2023-02-16T06:23:10;98385.03;;;15.13;100.00
8697;BME280;4385;48.848;8.924;2023-02-16T06:25:35;98388.44;;;15.18;100.00
8697;BME280;4385;48.848;8.924;2023-02-16T06:28:01;98387.63;;;15.24;100.00
8697;BME280;4385;48.848;8.924;2023-02-16T06:30:26;98395.28;;;15.32;100.00
8697;BME280;4385;48.848;8.924;2023-02-16T06:32:52;98383.47;;;15.39;100.00
8697;BME280;4385;48.848;8.924;2023-02-16T06:35:17;98387.72;;;15.43;100.00
8697;BME280;4385;48.848;8.924;2023-02-16T06:37:42;98383.50;;;15.50;100.00
8697;BME280;4385;48.848;8.924;2023-02-16T06:40:09;98381.00;;;15.54;100.00
8697;BME280;4385;48.848;8.924;2023-02-16T06:42:35;98384.38;;;15.58;100.00
8697;BME280;4385;48.848;8.924;2023-02-16T06:45:01;98385.25;;;15.63;100.00
8697;BME280;4385;48.848;8.924;2023-02-16T06:47:28;98391.19;;;15.67;100.00
8697;BME280;4385;48.848;8.924;2023-02-16T06:49:53;98391.22;;;15.68;100.00
8697;BME280;4385;48.848;8.924;2023-02-16T06:52:18;98387.81;;;15.68;100.00
8697;BME280;4385;48.848;8.924;2023-02-16T06:54:43;98392.03;;;15.67;100.00
8697;BME280;4385;48.848;8.924;2023-02-16T06:57:09;98396.28;;;15.65;100.00
8697;BME280;4385;48.848;8.924;2023-02-16T06:59:34;98397.09;;;15.61;100.00
8697;BME280;4385;48.848;8.924;2023-02-16T07:01:59;98397.94;;;15.58;100.00
8697;BME280;4385;48.848;8.924;2023-02-16T07:04:24;98403.00;;;15.55;100.00
8697;BME280;4385;48.848;8.924;2023-02-16T07:06:50;98399.59;;;15.53;100.00
8697;BME280;4385;48.848;8.924;2023-02-16T07:09:15;98403.00;;;15.52;100.00
8697;BME280;4385;48.848;8.924;2023-02-16T07:11:40;98396.22;;;15.51;100.00
8697;BME280;4385;48.848;8.924;2023-02-16T07:14:06;98398.75;;;15.48;100.00
8697;BME280;4385;48.848;8.924;2023-02-16T07:16:31;98405.50;;;15.48;100.00
8697;BME280;4385;48.848;8.924;2023-02-16T07:18:56;98397.88;;;15.48;100.00
8697;BME280;4385;48.848;8.924;2023-02-16T07:21:21;98402.97;;;15.49;100.00
8697;BME280;4385;48.848;8.924;2023-02-16T07:23:47;98403.84;;;15.51;100.00
8697;BME280;4385;48.848;8.924;2023-02-16T07:26:12;98409.78;;;15.56;100.00
8697;BME280;4385;48.848;8.924;2023-02-16T07:28:37;98404.72;;;15.63;100.00
8697;BME280;4385;48.848;8.924;2023-02-16T07:31:07;98408.16;;;15.71;100.00
8697;BME280;4385;48.848;8.924;2023-02-16T07:33:33;98411.56;;;15.79;100.00
8697;BME280;4385;48.848;8.924;2023-02-16T07:35:58;98411.59;;;15.89;100.00
8697;BME280;4385;48.848;8.924;2023-02-16T07:38:24;98415.84;;;15.96;100.00
8697;BME280;4385;48.848;8.924;2023-02-16T07:40:49;98419.31;;;16.06;100.00
8697;BME280;4385;48.848;8.924;2023-02-16T07:43:14;98418.47;;;16.10;100.00
8697;BME280;4385;48.848;8.924;2023-02-16T07:45:39;98410.03;;;16.16;100.00
8697;BME280;4385;48.848;8.924;2023-02-16T07:48:06;98411.72;;;16.17;100.00
8697;BME280;4385;48.848;8.924;2023-02-16T07:50:31;98421.88;;;16.17;100.00
8697;BME280;4385;48.848;8.924;2023-02-16T07:52:57;98414.25;;;16.14;100.00
8697;BME280;4385;48.848;8.924;2023-02-16T07:55:24;98418.47;;;16.12;100.00
8697;BME280;4385;48.848;8.924;2023-02-16T07:57:49;98412.53;;;16.08;100.00
8697;BME280;4385;48.848;8.924;2023-02-16T08:00:19;98423.53;;;16.05;100.00
8697;BME280;4385;48.848;8.924;2023-02-16T08:02:45;98426.09;;;16.07;100.00
8697;BME280;4385;48.848;8.924;2023-02-16T08:05:10;98421.84;;;16.04;100.00
8697;BME280;4385;48.848;8.924;2023-02-16T08:07:35;98421.84;;;16.04;100.00
8697;BME280;4385;48.848;8.924;2023-02-16T08:10:00;98424.41;;;16.04;100.00
8697;BME280;4385;48.848;8.924;2023-02-16T08:12:26;98425.25;;;16.03;100.00
8697;BME280;4385;48.848;8.924;2023-02-16T08:14:52;98428.63;;;16.05;100.00
8697;BME280;4385;48.848;8.924;2023-02-16T08:17:17;98420.16;;;16.06;100.00
8697;BME280;4385;48.848;8.924;2023-02-16T08:19:44;98423.56;;;16.10;100.00
8697;BME280;4385;48.848;8.924;2023-02-16T08:22:10;98421.88;;;16.11;100.00
8697;BME280;4385;48.848;8.924;2023-02-16T08:24:36;98425.28;;;16.13;100.00
8697;BME280;4385;48.848;8.924;2023-02-16T08:27:02;98428.66;;;16.16;100.00
8697;BME280;4385;48.848;8.924;2023-02-16T08:29:29;98423.56;;;16.18;100.00
8697;BME280;4385;48.848;8.924;2023-02-16T08:31:54;98429.53;;;16.22;100.00
8697;BME280;4385;48.848;8.924;2023-02-16T08:34:21;98425.28;;;16.25;100.00
8697;BME280;4385;48.848;8.924;2023-02-16T08:36:51;98428.69;;;16.29;100.00
8697;BME280;4385;48.848;8.924;2023-02-16T08:39:19;98427.00;;;16.32;100.00
8697;BME280;4385;48.848;8.924;2023-02-16T08:41:47;98429.53;;;16.32;100.00
8697;BME280;4385;48.848;8.924;2023-02-16T08:44:14;98422.75;;;16.31;100.00
8697;BME280;4385;48.848;8.924;2023-02-16T08:46:41;98420.22;;;16.31;100.00
8697;BME280;4385;48.848;8.924;2023-02-16T08:49:08;98415.13;;;16.31;100.00
8697;BME280;4385;48.848;8.924;2023-02-16T08:51:39;98414.28;;;16.36;100.00
8697;BME280;4385;48.848;8.924;2023-02-16T08:54:05;98425.31;;;16.38;100.00
8697;BME280;4385;48.848;8.924;2023-02-16T08:56:35;98423.59;;;16.38;100.00
8697;BME280;4385;48.848;8.924;2023-02-16T08:59:00;98425.31;;;16.38;100.00
8697;BME280;4385;48.848;8.924;2023-02-16T09:01:26;98424.47;;;16.39;100.00
8697;BME280;4385;48.848;8.924;2023-02-16T09:03:52;98421.06;;;16.38;100.00
8697;BME280;4385;48.848;8.924;2023-02-16T09:06:19;98420.22;;;16.39;100.00
8697;BME280;4385;48.848;8.924;2023-02-16T09:08:49;98425.31;;;16.41;100.00
8697;BME280;4385;48.848;8.924;2023-02-16T09:11:16;98423.59;;;16.41;100.00
8697;BME280;4385;48.848;8.924;2023-02-16T09:13:42;98425.31;;;16.45;100.00
8697;BME280;4385;48.848;8.924;2023-02-16T09:16:12;98429.56;;;16.48;100.00
8697;BME280;4385;48.848;8.924;2023-02-16T09:18:39;98425.34;;;16.53;100.00
8697;BME280;4385;48.848;8.924;2023-02-16T09:21:08;98438.06;;;16.56;100.00
8697;BME280;4385;48.848;8.924;2023-02-16T09:23:35;98423.63;;;16.58;100.00
8697;BME280;4385;48.848;8.924;2023-02-16T09:26:01;98426.16;;;16.63;100.00
8697;BME280;4385;48.848;8.924;2023-02-16T09:28:27;98425.34;;;16.66;100.00
8697;BME280;4385;48.848;8.924;2023-02-16T09:30:53;98428.72;;;16.68;100.00
8697;BME280;4385;48.848;8.924;2023-02-16T09:33:18;98422.78;;;16.74;100.00
8697;BME280;4385;48.848;8.924;2023-02-16T09:35:44;98425.34;;;16.78;100.00
8697;BME280;4385;48.848;8.924;2023-02-16T09:38:09;98422.78;;;16.81;100.00
8697;BME280;4385;48.848;8.924;2023-02-16T09:40:35;98421.94;;;16.86;100.00
8697;BME280;4385;48.848;8.924;2023-02-16T09:45:46;98418.50;;;16.93;100.00
8697;BME280;4385;48.848;8.924;2023-02-16T09:48:32;98420.22;;;16.94;100.00
8697;BME280;4385;48.848;8.924;2023-02-16T09:50:59;98417.69;;;16.99;100.00
8697;BME280;4385;48.848;8.924;2023-02-16T09:56:07;98419.38;;;16.97;100.00
8697;BME280;4385;48.848;8.924;2023-02-16T09:58:41;98415.97;;;16.91;100.00
8697;BME280;4385;48.848;8.924;2023-02-16T10:01:40;98412.59;;;16.86;100.00
8697;BME280;4385;48.848;8.924;2023-02-16T10:09:37;98418.53;;;16.74;100.00
8697;BME280;4385;48.848;8.924;2023-02-16T10:12:10;98417.69;;;16.67;100.00
8697;BME280;4385;48.848;8.924;2023-02-16T10:14:44;98413.44;;;16.62;100.00
8697;BME280;4385;48.848;8.924;2023-02-16T10:17:40;98415.97;;;16.55;100.00
8697;BME280;4385;48.848;8.924;2023-02-16T10:20:20;98411.75;;;16.54;100.00
8697;BME280;4385;48.848;8.924;2023-02-16T10:25:47;98415.16;;;16.49;100.00
8697;BME280;4385;48.848;8.924;2023-02-16T10:30:47;98417.69;;;16.47;100.00
8697;BME280;4385;48.848;8.924;2023-02-16T10:33:36;98415.16;;;16.47;100.00
8697;BME280;4385;48.848;8.924;2023-02-16T10:39:25;98410.88;;;16.48;100.00
8697;BME280;4385;48.848;8.924;2023-02-16T10:42:01;98409.19;;;16.48;100.00
8697;BME280;4385;48.848;8.924;2023-02-16T10:44:39;98407.53;;;16.47;100.00
8697;BME280;4385;48.848;8.924;2023-02-16T10:47:22;98404.97;;;16.47;100.00
8697;BME280;4385;48.848;8.924;2023-02-16T10:49:51;98394.78;;;16.45;100.00
8697;BME280;4385;48.848;8.924;2023-02-16T10:52:17;98403.25;;;16.43;100.00
8697;BME280;4385;48.848;8.924;2023-02-16T10:54:42;98401.56;;;16.42;100.00
8697;BME280;4385;48.848;8.924;2023-02-16T10:57:22;98401.56;;;16.40;100.00
8697;BME280;4385;48.848;8.924;2023-02-16T10:59:49;98393.94;;;16.37;100.00
8697;BME280;4385;48.848;8.924;2023-02-16T11:02:23;98385.44;;;16.35;100.00
8697;BME280;4385;48.848;8.924;2023-02-16T11:04:50;98395.63;;;16.32;100.00
8697;BME280;4385;48.848;8.924;2023-02-16T11:07:25;98395.59;;;16.29;100.00
8697;BME280;4385;48.848;8.924;2023-02-16T11:09:53;98388.84;;;16.28;100.00
8697;BME280;4385;48.848;8.924;2023-02-16T11:12:32;98382.88;;;16.24;100.00
8697;BME280;4385;48.848;8.924;2023-02-16T11:17:52;98379.50;;;16.24;100.00
8697;BME280;4385;48.848;8.924;2023-02-16T11:23:26;98377.78;;;16.24;100.00
8697;BME280;4385;48.848;8.924;2023-02-16T11:26:10;98376.97;;;16.25;100.00
8697;BME280;4385;48.848;8.924;2023-02-16T11:28:47;98376.97;;;16.27;100.00
8697;BME280;4385;48.848;8.924;2023-02-16T11:31:37;98376.13;;;16.29;100.00
8697;BME280;4385;48.848;8.924;2023-02-16T11:34:12;98366.81;;;16.30;100.00
8697;BME280;4385;48.848;8.924;2023-02-16T11:36:40;98356.63;;;16.33;100.00
8697;BME280;4385;48.848;8.924;2023-02-16T11:41:43;98363.41;;;16.36;100.00
8697;BME280;4385;48.848;8.924;2023-02-16T11:44:28;98350.69;;;16.37;100.00
8697;BME280;4385;48.848;8.924;2023-02-16T11:46:56;98354.91;;;16.38;100.00
8697;BME280;4385;48.848;8.924;2023-02-16T11:49:38;98359.19;;;16.38;100.00
8697;BME280;4385;48.848;8.924;2023-02-16T11:54:52;98342.19;;;16.37;100.00
8697;BME280;4385;48.848;8.924;2023-02-16T11:57:29;98346.47;;;16.35;100.00
8697;BME280;4385;48.848;8.924;2023-02-16T11:59:57;98333.75;;;16.35;100.00
8697;BME280;4385;48.848;8.924;2023-02-16T12:13:44;98324.38;;;16.26;100.00
8697;BME280;4385;48.848;8.924;2023-02-16T12:19:23;98326.94;;;16.27;100.00
8697;BME280;4385;48.848;8.924;2023-02-16T12:21:59;98324.38;;;16.29;100.00
8697;BME280;4385;48.848;8.924;2023-02-16T12:27:17;98315.06;;;16.32;100.00
8697;BME280;4385;48.848;8.924;2023-02-16T12:29:45;98306.59;;;16.33;100.00
8697;BME280;4385;48.848;8.924;2023-02-16T12:32:26;98304.91;;;16.36;100.00
8697;BME280;4385;48.848;8.924;2023-02-16T12:45:45;98291.31;;;16.43;100.00
8697;BME280;4385;48.848;8.924;2023-02-16T12:51:05;98282.00;;;16.42;100.00
8697;BME280;4385;48.848;8.924;2023-02-16T12:54:00;98276.06;;;16.40;100.00
8697;BME280;4385;48.848;8.924;2023-02-16T12:56:42;98276.06;;;16.40;100.00
8697;BME280;4385;48.848;8.924;2023-02-16T12:59:57;98271.81;;;16.39;100.00
8697;BME280;4385;48.848;8.924;2023-02-16T13:02:41;98267.59;;;16.38;100.00
8697;BME280;4385;48.848;8.924;2023-02-16T13:05:13;98262.50;;;16.38;100.00
8697;BME280;4385;48.848;8.924;2023-02-16T13:07:42;98254.03;;;16.36;100.00
8697;BME280;4385;48.848;8.924;2023-02-16T13:10:23;98259.13;;;16.32;100.00
8697;BME280;4385;48.848;8.924;2023-02-16T13:12:59;98247.25;;;16.31;100.00
8697;BME280;4385;48.848;8.924;2023-02-16T13:15:38;98252.34;;;16.31;100.00
8697;BME280;4385;48.848;8.924;2023-02-16T13:20:48;98248.09;;;16.32;100.00
8697;BME280;4385;48.848;8.924;2023-02-16T13:45:24;98254.88;;;16.42;100.00
8697;BME280;4385;48.848;8.924;2023-02-16T13:47:52;98251.47;;;16.42;100.00
8697;BME280;4385;48.848;8.924;2023-02-16T13:52:47;98248.94;;;16.43;100.00
8697;BME280;4385;48.848;8.924;2023-02-16T14:00:46;98247.25;;;16.38;100.00
8697;BME280;4385;48.848;8.924;2023-02-16T14:05:45;98259.97;;;16.33;100.00
8697;BME280;4385;48.848;8.924;2023-02-16T14:16:10;98250.63;;;16.27;100.00
8697;BME280;4385;48.848;8.924;2023-02-16T14:18:44;98254.91;;;16.27;100.00
8697;BME280;4385;48.848;8.924;2023-02-16T14:23:54;98254.91;;;16.28;100.00
8697;BME280;4385;48.848;8.924;2023-02-16T14:26:20;98258.25;;;16.27;100.00
8697;BME280;4385;48.848;8.924;2023-02-16T14:29:00;98264.22;;;16.29;100.00
8697;BME280;4385;48.848;8.924;2023-02-16T14:31:31;98259.97;;;16.30;100.00
8697;BME280;4385;48.848;8.924;2023-02-16T14:34:15;98264.22;;;16.32;100.00
8697;BME280;4385;48.848;8.924;2023-02-16T14:39:42;98264.19;;;16.36;100.00
8697;BME280;4385;48.848;8.924;2023-02-16T14:42:17;98267.59;;;16.38;100.00
8697;BME280;4385;48.848;8.924;2023-02-16T14:45:36;98265.88;;;16.37;100.00
8697;BME280;4385;48.848;8.924;2023-02-16T14:56:33;98245.53;;;16.33;100.00
8697;BME280;4385;48.848;8.924;2023-02-16T14:59:12;98250.63;;;16.29;100.00
8697;BME280;4385;48.848;8.924;2023-02-16T15:01:43;98256.56;;;16.26;100.00
8697;BME280;4385;48.848;8.924;2023-02-16T15:04:10;98254.03;;;16.25;100.00
8697;BME280;4385;48.848;8.924;2023-02-16T15:06:41;98254.03;;;16.23;100.00
8697;BME280;4385;48.848;8.924;2023-02-16T15:09:15;98254.03;;;16.20;100.00
8697;BME280;4385;48.848;8.924;2023-02-16T15:12:05;98247.28;;;16.19;100.00
8697;BME280;4385;48.848;8.924;2023-02-16T15:17:35;98236.25;;;16.18;100.00
8697;BME280;4385;48.848;8.924;2023-02-16T15:20:16;98229.47;;;16.19;100.00
8697;BME280;4385;48.848;8.924;2023-02-16T15:22:54;98228.63;;;16.20;100.00
8697;BME280;4385;48.848;8.924;2023-02-16T15:30:33;98232.84;;;16.23;100.00
8697;BME280;4385;48.848;8.924;2023-02-16T15:33:02;98231.16;;;16.25;100.00
8697;BME280;4385;48.848;8.924;2023-02-16T15:35:35;98242.19;;;16.27;100.00
8697;BME280;4385;48.848;8.924;2023-02-16T15:38:08;98245.53;;;16.27;100.00
8697;BME280;4385;48.848;8.924;2023-02-16T15:40:34;98242.19;;;16.28;100.00
8697;BME280;4385;48.848;8.924;2023-02-16T15:43:18;98232.00;;;16.30;100.00
8697;BME280;4385;48.848;8.924;2023-02-16T15:45:48;98233.69;;;16.32;100.00
8697;BME280;4385;48.848;8.924;2023-02-16T15:48:29;98232.81;;;16.33;100.00